Time;durP1;ratioP1;P1;durP2;ratioP2;P2;SDS_P1;SDS_P2;PMS_P1;PMS_P2;Temp;Humidity;BMP_temperature;BMP_pressure;BME280_temperature;BME280_humidity;BME280_pressure;Samples;Min_cycle;Max_cycle;Signal;HPM_P1;HPM_P2
2022/01/31 00:02:18;;;;;;;2.92;2.45;;;;;;;;;;4655058;30;20049;-84
2022/01/31 00:05:45;;;;;;;14.85;6.35;;;;;;;;;;4679066;30;20058;-85
2022/01/31 00:08:52;;;;;;;5.18;2.78;;;;;;;;;;4636591;30;20093;-85
2022/01/31 00:11:26;;;;;;;3.65;2.38;;;;;;;;;;4702026;30;20091;-84
2022/01/31 00:14:09;;;;;;;6.53;2.47;;;;;;;;;;4705824;30;20059;-85
2022/01/31 00:16:43;;;;;;;4.53;3.22;;;;;;;;;;4751472;29;20075;-84
2022/01/31 00:19:14;;;;;;;3.38;2.58;;;;;;;;;;4791816;29;20061;-84
2022/01/31 00:21:48;;;;;;;3.25;2.95;;;;;;;;;;4793661;29;20050;-84
2022/01/31 00:24:17;;;;;;;4.43;2.90;;;;;;;;;;4822119;29;20069;-84
2022/01/31 00:26:48;;;;;;;10.55;4.38;;;;;;;;;;4797673;29;20065;-84
2022/01/31 00:29:22;;;;;;;2.20;1.70;;;;;;;;;;4809652;29;20066;-84
2022/01/31 00:31:56;;;;;;;11.35;3.28;;;;;;;;;;4812443;29;20046;-84
2022/01/31 00:34:27;;;;;;;8.90;3.33;;;;;;;;;;4796700;29;20058;-84
2022/01/31 00:37:01;;;;;;;2.95;2.10;;;;;;;;;;4801590;29;20057;-85
2022/01/31 00:39:33;;;;;;;9.00;2.88;;;;;;;;;;4810458;29;20062;-84
2022/01/31 00:42:08;;;;;;;8.20;3.55;;;;;;;;;;4826188;29;20121;-84
2022/01/31 00:44:46;;;;;;;4.35;3.53;;;;;;;;;;4824730;29;20515;-84
2022/01/31 00:47:23;;;;;;;6.20;1.98;;;;;;;;;;4826242;29;20057;-83
2022/01/31 00:50:05;;;;;;;3.40;2.80;;;;;;;;;;4810030;29;20062;-84
2022/01/31 00:52:35;;;;;;;9.40;6.63;;;;;;;;;;4795709;29;20042;-85
2022/01/31 00:55:03;;;;;;;3.08;2.50;;;;;;;;;;4810796;29;20532;-84
2022/01/31 00:57:31;;;;;;;3.58;3.28;;;;;;;;;;4855798;29;20065;-84
2022/01/31 00:59:59;;;;;;;4.50;3.00;;;;;;;;;;4846035;29;20052;-84
2022/01/31 01:02:27;;;;;;;6.55;3.10;;;;;;;;;;4847584;29;20510;-84
2022/01/31 01:04:56;;;;;;;8.80;3.55;;;;;;;;;;4831175;29;20053;-83
2022/01/31 01:07:24;;;;;;;7.38;3.20;;;;;;;;;;4844611;29;20064;-84
2022/01/31 01:09:53;;;;;;;14.05;5.18;;;;;;;;;;4810040;29;20061;-84
2022/01/31 01:12:21;;;;;;;8.60;4.05;;;;;;;;;;4809878;29;20144;-84
2022/01/31 01:14:50;;;;;;;5.47;3.17;;;;;;;;;;4809806;29;20653;-84
2022/01/31 01:17:18;;;;;;;5.28;3.15;;;;;;;;;;4825279;29;20054;-84
2022/01/31 01:19:46;;;;;;;6.90;3.38;;;;;;;;;;4825198;29;20073;-85
2022/01/31 01:22:15;;;;;;;9.93;3.22;;;;;;;;;;4795638;29;20053;-84
2022/01/31 01:24:43;;;;;;;3.67;2.78;;;;;;;;;;4809710;29;20524;-84
2022/01/31 01:27:14;;;;;;;3.47;2.22;;;;;;;;;;4810407;29;20057;-84
2022/01/31 01:29:43;;;;;;;8.67;3.00;;;;;;;;;;4794589;29;20054;-84
2022/01/31 01:32:11;;;;;;;3.70;2.45;;;;;;;;;;4809208;29;20050;-84
2022/01/31 01:34:39;;;;;;;8.98;2.85;;;;;;;;;;4825381;29;20062;-84
2022/01/31 01:37:07;;;;;;;2.72;2.53;;;;;;;;;;4824389;29;20061;-84
2022/01/31 01:39:35;;;;;;;7.68;2.03;;;;;;;;;;4808830;29;20065;-83
2022/01/31 01:42:03;;;;;;;3.35;2.70;;;;;;;;;;4810597;29;20054;-84
2022/01/31 01:44:48;;;;;;;4.65;2.80;;;;;;;;;;4824070;29;20057;-84
2022/01/31 01:47:19;;;;;;;12.90;2.72;;;;;;;;;;4795274;29;20054;-84
2022/01/31 01:49:49;;;;;;;4.75;3.08;;;;;;;;;;4809310;29;20804;-84
2022/01/31 01:52:19;;;;;;;;;;;;;;;;;;4816448;29;20057;-84
2022/01/31 01:54:48;;;;;;;3.78;2.25;;;;;;;;;;4824672;29;19936;-84
2022/01/31 01:57:18;;;;;;;7.72;2.53;;;;;;;;;;4850903;29;20689;-84
2022/01/31 01:59:47;;;;;;;4.78;2.85;;;;;;;;;;4844782;29;20053;-84
2022/01/31 02:02:33;;;;;;;2.40;2.20;;;;;;;;;;4848644;29;20057;-84
2022/01/31 02:05:03;;;;;;;5.85;4.80;;;;;;;;;;4830855;29;20064;-84
2022/01/31 02:07:38;;;;;;;2.10;1.92;;;;;;;;;;4818131;29;20061;-84
2022/01/31 02:10:08;;;;;;;2.53;2.33;;;;;;;;;;4810015;29;20053;-84
2022/01/31 02:13:04;;;;;;;4.10;2.42;;;;;;;;;;4832719;29;20058;-83
2022/01/31 02:15:51;;;;;;;4.40;2.63;;;;;;;;;;4846328;29;20416;-82
2022/01/31 02:18:51;;;;;;;10.43;4.32;;;;;;;;;;4804995;29;20053;-83
2022/01/31 02:21:38;;;;;;;4.15;2.20;;;;;;;;;;4845129;29;20053;-85
2022/01/31 02:24:25;;;;;;;6.68;3.30;;;;;;;;;;4835483;29;20058;-84
2022/01/31 02:27:23;;;;;;;6.45;2.65;;;;;;;;;;4824821;29;20049;-84
2022/01/31 02:29:51;;;;;;;9.07;2.83;;;;;;;;;;4792708;29;20060;-84
2022/01/31 02:32:20;;;;;;;6.22;2.85;;;;;;;;;;4808546;29;20444;-84
2022/01/31 02:34:56;;;;;;;2.50;2.40;;;;;;;;;;4809517;29;20527;-83
2022/01/31 02:37:24;;;;;;;3.38;3.08;;;;;;;;;;4806534;29;20053;-84
2022/01/31 02:39:56;;;;;;;6.47;3.65;;;;;;;;;;4808244;29;20053;-84
2022/01/31 02:42:24;;;;;;;6.10;4.32;;;;;;;;;;4823988;29;20393;-85
2022/01/31 02:44:52;;;;;;;2.33;2.17;;;;;;;;;;4823152;29;20392;-84
2022/01/31 02:47:30;;;;;;;2.72;2.00;;;;;;;;;;4824577;29;20493;-84
2022/01/31 02:50:01;;;;;;;2.60;2.40;;;;;;;;;;4822434;29;20060;-84
2022/01/31 02:52:36;;;;;;;15.80;2.63;;;;;;;;;;4823586;29;20061;-84
2022/01/31 02:55:05;;;;;;;2.65;2.45;;;;;;;;;;4824179;29;20507;-84
2022/01/31 02:57:37;;;;;;;12.20;6.15;;;;;;;;;;4842537;29;20061;-84
2022/01/31 03:00:09;;;;;;;6.47;2.72;;;;;;;;;;4844937;29;20432;-84
2022/01/31 03:03:05;;;;;;;5.32;3.20;;;;;;;;;;4845102;29;20057;-84
2022/01/31 03:05:34;;;;;;;6.28;2.83;;;;;;;;;;4841599;29;20053;-85
2022/01/31 03:08:03;;;;;;;7.13;2.58;;;;;;;;;;4820366;29;20050;-85
2022/01/31 03:10:31;;;;;;;2.88;2.67;;;;;;;;;;4824186;29;20053;-83
2022/01/31 03:13:00;;;;;;;4.75;4.13;;;;;;;;;;4807263;29;20100;-84
2022/01/31 03:15:32;;;;;;;3.17;2.45;;;;;;;;;;4823461;29;20057;-84
2022/01/31 03:18:09;;;;;;;3.38;3.17;;;;;;;;;;4839714;29;20054;-84
2022/01/31 03:20:42;;;;;;;4.78;4.47;;;;;;;;;;4808566;29;20054;-84
2022/01/31 03:23:13;;;;;;;3.67;3.17;;;;;;;;;;4823338;29;20057;-83
2022/01/31 03:25:44;;;;;;;7.53;2.53;;;;;;;;;;4823823;29;20053;-83
2022/01/31 03:28:17;;;;;;;12.35;5.68;;;;;;;;;;4807091;29;20050;-85
2022/01/31 03:30:45;;;;;;;2.75;2.28;;;;;;;;;;4840154;29;20084;-83
2022/01/31 03:33:15;;;;;;;12.48;4.70;;;;;;;;;;4807960;29;20050;-84
2022/01/31 03:35:43;;;;;;;5.55;2.72;;;;;;;;;;4822870;29;20073;-84
2022/01/31 03:38:11;;;;;;;4.00;2.58;;;;;;;;;;4807760;29;20062;-84
2022/01/31 03:40:39;;;;;;;4.00;3.30;;;;;;;;;;4807677;29;20054;-83
2022/01/31 03:43:08;;;;;;;36.63;4.40;;;;;;;;;;4822815;29;20050;-83
2022/01/31 03:45:36;;;;;;;7.30;3.95;;;;;;;;;;4812361;29;20041;-83
2022/01/31 03:48:16;;;;;;;9.43;2.70;;;;;;;;;;4821190;29;20046;-84
2022/01/31 03:50:46;;;;;;;6.32;2.88;;;;;;;;;;4808361;29;20076;-83
2022/01/31 03:53:18;;;;;;;4.70;3.50;;;;;;;;;;4824175;29;20057;-83
2022/01/31 03:55:46;;;;;;;6.18;2.90;;;;;;;;;;4817530;29;20061;-83
2022/01/31 03:58:14;;;;;;;7.20;2.00;;;;;;;;;;4832297;29;20506;-83
2022/01/31 04:00:52;;;;;;;8.73;3.30;;;;;;;;;;4833832;29;20708;-82
2022/01/31 04:03:21;;;;;;;4.72;3.08;;;;;;;;;;4848313;29;20411;-83
2022/01/31 04:05:49;;;;;;;5.85;2.88;;;;;;;;;;4862889;29;20061;-83
2022/01/31 04:08:17;;;;;;;5.57;3.25;;;;;;;;;;4863004;29;20065;-84
2022/01/31 04:10:45;;;;;;;5.05;3.25;;;;;;;;;;4863974;29;20059;-82
2022/01/31 04:13:16;;;;;;;3.63;3.30;;;;;;;;;;4832249;29;20739;-83
2022/01/31 04:15:44;;;;;;;2.75;2.50;;;;;;;;;;4826641;29;20057;-83
2022/01/31 04:18:13;;;;;;;4.78;2.63;;;;;;;;;;4843155;29;20076;-82
2022/01/31 04:20:43;;;;;;;13.38;5.10;;;;;;;;;;4810942;29;20053;-82
2022/01/31 04:23:18;;;;;;;12.25;2.72;;;;;;;;;;4811101;29;20062;-83
2022/01/31 04:30:57;;;;;;;13.30;3.70;;;;;;;;;;4853908;29;20063;-82
2022/01/31 04:33:26;;;;;;;12.02;3.28;;;;;;;;;;4817034;29;20070;-82
2022/01/31 04:35:55;;;;;;;14.13;5.30;;;;;;;;;;4829219;29;20058;-82
2022/01/31 04:38:24;;;;;;;3.55;2.67;;;;;;;;;;4844387;29;20064;-82
2022/01/31 04:40:58;;;;;;;10.88;6.82;;;;;;;;;;4833977;29;20590;-82
2022/01/31 04:43:26;;;;;;;5.03;4.15;;;;;;;;;;4826365;29;20070;-82
2022/01/31 04:46:05;;;;;;;7.35;3.70;;;;;;;;;;4822452;29;20049;-82
2022/01/31 04:48:43;;;;;;;2.67;2.47;;;;;;;;;;4791826;29;20061;-82
2022/01/31 04:51:13;;;;;;;7.10;3.85;;;;;;;;;;4835331;29;20057;-83
2022/01/31 04:53:47;;;;;;;6.43;4.22;;;;;;;;;;4809148;29;20049;-82
2022/01/31 04:56:28;;;;;;;6.88;3.20;;;;;;;;;;4797352;29;20053;-83
2022/01/31 04:59:17;;;;;;;4.45;3.20;;;;;;;;;;4800402;29;20516;-83
2022/01/31 05:02:02;;;;;;;5.75;3.13;;;;;;;;;;4822037;29;20057;-82
2022/01/31 05:04:35;;;;;;;3.55;2.47;;;;;;;;;;4841813;29;20049;-83
2022/01/31 05:07:21;;;;;;;17.27;3.78;;;;;;;;;;4840416;29;20060;-82
2022/01/31 05:10:34;;;;;;;4.45;3.20;;;;;;;;;;4782524;29;20065;-81
2022/01/31 05:13:26;;;;;;;3.70;3.40;;;;;;;;;;4811267;29;20054;-83
2022/01/31 05:16:22;;;;;;;8.10;4.70;;;;;;;;;;4828518;29;20050;-83
2022/01/31 05:19:22;;;;;;;14.23;5.07;;;;;;;;;;4810488;29;20068;-83
2022/01/31 05:21:58;;;;;;;7.63;3.28;;;;;;;;;;4795050;29;20070;-87
2022/01/31 05:24:26;;;;;;;3.28;3.03;;;;;;;;;;4813196;29;20049;-85
2022/01/31 05:26:54;;;;;;;8.82;3.45;;;;;;;;;;4823836;29;20054;-85
2022/01/31 05:29:23;;;;;;;4.50;4.07;;;;;;;;;;4809490;29;20050;-85
2022/01/31 05:31:53;;;;;;;3.38;3.05;;;;;;;;;;4836410;29;20045;-84
2022/01/31 05:34:23;;;;;;;6.47;3.40;;;;;;;;;;4853188;29;20050;-85
2022/01/31 05:36:55;;;;;;;3.90;2.57;;;;;;;;;;4841741;29;20530;-85
2022/01/31 05:39:25;;;;;;;6.00;3.70;;;;;;;;;;4825069;29;20065;-83
2022/01/31 05:41:54;;;;;;;5.70;2.97;;;;;;;;;;4825726;29;20046;-82
2022/01/31 05:44:23;;;;;;;8.45;3.33;;;;;;;;;;4831069;29;20057;-82
2022/01/31 05:46:52;;;;;;;7.65;2.88;;;;;;;;;;4859856;29;20037;-83
2022/01/31 05:49:20;;;;;;;3.65;3.08;;;;;;;;;;4859475;29;20057;-83
2022/01/31 05:51:57;;;;;;;6.50;4.88;;;;;;;;;;4853633;29;20057;-83
2022/01/31 05:54:25;;;;;;;6.95;2.55;;;;;;;;;;4851150;29;20050;-86
2022/01/31 05:56:55;;;;;;;4.00;3.80;;;;;;;;;;4867027;29;20056;-86
2022/01/31 05:59:24;;;;;;;18.98;4.40;;;;;;;;;;4841102;29;20060;-87
2022/01/31 06:01:52;;;;;;;7.03;3.03;;;;;;;;;;4843685;29;20555;-84
2022/01/31 06:04:20;;;;;;;7.38;3.30;;;;;;;;;;4826730;29;20388;-84
2022/01/31 06:06:51;;;;;;;8.32;4.47;;;;;;;;;;4846374;29;20053;-86
2022/01/31 06:09:32;;;;;;;5.72;3.63;;;;;;;;;;4845490;29;20511;-88
2022/01/31 06:12:04;;;;;;;7.80;3.50;;;;;;;;;;4831078;29;20046;-86
2022/01/31 06:14:36;;;;;;;4.63;3.63;;;;;;;;;;4810640;29;20057;-83
2022/01/31 06:17:04;;;;;;;10.85;2.75;;;;;;;;;;4824533;29;20050;-82
2022/01/31 06:20:05;;;;;;;;;;;;;;;;;;;;;
2022/01/31 06:22:42;;;;;;;3.53;3.22;;;;;;;;;;4841378;29;20555;-86
2022/01/31 06:25:11;;;;;;;6.43;3.83;;;;;;;;;;4781829;29;20513;-84
2022/01/31 06:27:44;;;;;;;11.13;4.78;;;;;;;;;;4806444;29;20062;-82
2022/01/31 06:30:12;;;;;;;;;;;;;;;;;;4793507;29;20408;-87
2022/01/31 06:32:45;;;;;;;4.50;4.20;;;;;;;;;;4776369;29;19928;-87
2022/01/31 06:35:13;;;;;;;6.85;4.25;;;;;;;;;;4822348;29;20046;-83
2022/01/31 06:37:44;;;;;;;6.20;5.47;;;;;;;;;;4800595;29;20038;-84
2022/01/31 06:40:17;;;;;;;6.50;5.90;;;;;;;;;;4820269;29;20065;-84
2022/01/31 06:42:45;;;;;;;7.70;5.00;;;;;;;;;;4822550;29;20527;-84
2022/01/31 06:45:14;;;;;;;7.60;4.72;;;;;;;;;;4790159;29;20066;-85
2022/01/31 06:47:42;;;;;;;13.90;4.45;;;;;;;;;;4821940;29;20591;-84
2022/01/31 06:50:10;;;;;;;7.00;4.18;;;;;;;;;;4822447;29;20062;-84
2022/01/31 06:52:38;;;;;;;5.40;4.82;;;;;;;;;;4790525;29;20042;-86
2022/01/31 06:55:07;;;;;;;7.03;4.97;;;;;;;;;;4822333;29;20066;-85
2022/01/31 06:57:36;;;;;;;8.13;5.53;;;;;;;;;;4852509;29;20057;-83
2022/01/31 07:00:05;;;;;;;8.32;4.85;;;;;;;;;;4857743;29;20771;-85
2022/01/31 07:02:33;;;;;;;5.65;4.45;;;;;;;;;;4859056;29;20056;-85
2022/01/31 07:05:01;;;;;;;19.08;5.05;;;;;;;;;;4858384;29;20045;-85
2022/01/31 07:07:30;;;;;;;9.65;5.63;;;;;;;;;;4812683;29;20054;-85
2022/01/31 07:10:00;;;;;;;5.00;3.38;;;;;;;;;;4811256;29;20047;-84
2022/01/31 07:12:32;;;;;;;8.13;3.67;;;;;;;;;;4799661;29;20038;-84
2022/01/31 07:15:01;;;;;;;4.55;4.07;;;;;;;;;;4830851;29;20050;-83
2022/01/31 07:17:30;;;;;;;5.82;3.63;;;;;;;;;;4832045;29;20053;-84
2022/01/31 07:19:58;;;;;;;7.80;3.30;;;;;;;;;;4835815;29;20408;-85
2022/01/31 07:22:33;;;;;;;3.25;3.00;;;;;;;;;;4806345;29;20050;-86
2022/01/31 07:25:04;;;;;;;6.43;3.15;;;;;;;;;;4800243;29;20057;-83
2022/01/31 07:27:32;;;;;;;7.15;3.30;;;;;;;;;;4823529;29;20524;-84
2022/01/31 07:30:01;;;;;;;9.20;2.58;;;;;;;;;;4807436;29;20050;-86
2022/01/31 07:32:30;;;;;;;7.28;4.50;;;;;;;;;;4809169;29;20046;-88
2022/01/31 07:34:58;;;;;;;4.47;3.08;;;;;;;;;;4794740;29;20057;-86
2022/01/31 07:37:27;;;;;;;7.05;3.40;;;;;;;;;;4808629;29;20054;-86
2022/01/31 07:39:58;;;;;;;5.28;3.40;;;;;;;;;;4840663;29;20057;-85
2022/01/31 07:42:32;;;;;;;5.30;3.03;;;;;;;;;;4811325;29;20046;-86
2022/01/31 07:45:01;;;;;;;11.07;3.80;;;;;;;;;;4793731;29;20053;-90
2022/01/31 07:47:39;;;;;;;4.53;3.20;;;;;;;;;;4810332;29;20060;-87
2022/01/31 07:50:08;;;;;;;5.82;3.90;;;;;;;;;;4794353;29;20159;-89
2022/01/31 07:52:36;;;;;;;4.82;3.70;;;;;;;;;;4832910;29;20054;-89
2022/01/31 07:55:05;;;;;;;2.60;2.45;;;;;;;;;;4842661;29;20061;-88
2022/01/31 07:57:34;;;;;;;2.78;2.55;;;;;;;;;;4855719;29;20056;-90
2022/01/31 08:00:07;;;;;;;4.80;4.32;;;;;;;;;;4877439;29;20266;-86
2022/01/31 08:02:44;;;;;;;5.05;3.15;;;;;;;;;;4862177;29;20095;-88
2022/01/31 08:05:12;;;;;;;3.58;3.28;;;;;;;;;;4831263;29;20404;-88
2022/01/31 08:07:43;;;;;;;4.43;4.13;;;;;;;;;;4830223;29;20060;-87
2022/01/31 08:10:13;;;;;;;5.07;3.47;;;;;;;;;;4862237;29;20083;-90
2022/01/31 08:12:42;;;;;;;7.15;3.90;;;;;;;;;;4841536;29;20053;-86
2022/01/31 08:15:19;;;;;;;2.63;2.40;;;;;;;;;;4845623;29;20046;-87
2022/01/31 08:17:48;;;;;;;4.82;2.78;;;;;;;;;;4838196;29;20139;-85
2022/01/31 08:20:16;;;;;;;3.97;3.00;;;;;;;;;;4830112;29;20053;-85
2022/01/31 08:22:44;;;;;;;3.05;2.65;;;;;;;;;;4823880;29;20054;-86
2022/01/31 08:25:18;;;;;;;7.32;3.10;;;;;;;;;;4822472;29;20511;-84
2022/01/31 08:27:53;;;;;;;3.88;2.58;;;;;;;;;;4824439;29;20057;-88
2022/01/31 08:30:25;;;;;;;3.22;2.28;;;;;;;;;;4840019;29;20050;-83
2022/01/31 08:33:02;;;;;;;5.90;3.03;;;;;;;;;;4835150;29;20053;-86
2022/01/31 08:38:46;;;;;;;2.55;2.35;;;;;;;;;;4836286;29;20065;-86
2022/01/31 08:41:16;;;;;;;5.80;2.53;;;;;;;;;;4865615;29;20053;-88
2022/01/31 08:43:50;;;;;;;2.28;2.05;;;;;;;;;;4862336;29;20547;-87
2022/01/31 08:46:20;;;;;;;5.93;2.67;;;;;;;;;;4846431;29;20053;-86
2022/01/31 08:48:48;;;;;;;4.18;3.65;;;;;;;;;;4857341;29;20054;-86
2022/01/31 08:51:29;;;;;;;2.85;2.60;;;;;;;;;;4849837;29;20046;-86
2022/01/31 08:54:09;;;;;;;;;;;;;;;;;;;;;
2022/01/31 08:56:59;;;;;;;11.20;4.70;;;;;;;;;;4846142;29;20536;-82
2022/01/31 08:59:28;;;;;;;4.97;4.20;;;;;;;;;;4842092;29;20835;-83
2022/01/31 09:02:12;;;;;;;4.75;3.63;;;;;;;;;;4829371;29;20084;-85
2022/01/31 09:04:49;;;;;;;3.50;3.20;;;;;;;;;;4857047;29;20045;-80
2022/01/31 09:07:19;;;;;;;4.53;4.13;;;;;;;;;;4853034;29;20053;-82
2022/01/31 09:09:51;;;;;;;3.75;3.17;;;;;;;;;;4826999;29;20050;-81
2022/01/31 09:12:22;;;;;;;3.85;3.33;;;;;;;;;;4829840;29;20050;-82
2022/01/31 09:14:50;;;;;;;5.63;3.88;;;;;;;;;;4824955;29;20489;-84
2022/01/31 09:17:18;;;;;;;2.95;2.25;;;;;;;;;;4824955;29;20497;-82
2022/01/31 09:19:46;;;;;;;3.25;2.67;;;;;;;;;;4825374;29;20420;-83
2022/01/31 09:22:14;;;;;;;11.05;3.45;;;;;;;;;;4825659;29;20061;-83
2022/01/31 09:24:43;;;;;;;3.05;2.85;;;;;;;;;;4824691;29;20501;-81
2022/01/31 09:27:11;;;;;;;2.70;2.50;;;;;;;;;;4842181;29;20057;-80
2022/01/31 09:29:40;;;;;;;3.72;3.17;;;;;;;;;;4840044;29;20045;-82
2022/01/31 09:32:10;;;;;;;9.07;3.85;;;;;;;;;;4825487;29;20057;-82
2022/01/31 09:34:38;;;;;;;5.00;3.25;;;;;;;;;;4828052;29;20061;-83
2022/01/31 09:37:07;;;;;;;2.97;2.67;;;;;;;;;;4828178;29;20048;-80
2022/01/31 09:39:35;;;;;;;4.82;3.55;;;;;;;;;;4842745;29;20064;-81
2022/01/31 09:42:10;;;;;;;3.40;3.15;;;;;;;;;;4857546;29;20052;-83
2022/01/31 09:44:52;;;;;;;5.00;3.35;;;;;;;;;;4831069;29;20060;-80
2022/01/31 09:49:48;;;;;;;6.60;2.63;;;;;;;;;;4862075;29;20417;-81
2022/01/31 09:52:17;;;;;;;3.35;3.03;;;;;;;;;;4843240;29;20373;-84
2022/01/31 09:54:48;;;;;;;3.55;3.25;;;;;;;;;;4843766;29;20057;-80
2022/01/31 09:57:18;;;;;;;3.97;2.50;;;;;;;;;;4869019;29;20080;-80
2022/01/31 09:59:46;;;;;;;3.45;3.15;;;;;;;;;;4866282;29;20056;-81
2022/01/31 10:02:14;;;;;;;5.75;2.67;;;;;;;;;;4867536;29;20053;-81
2022/01/31 10:04:44;;;;;;;3.40;3.10;;;;;;;;;;4853189;29;20049;-80
2022/01/31 10:07:15;;;;;;;3.30;3.00;;;;;;;;;;4848150;29;20060;-83
2022/01/31 10:09:47;;;;;;;;;;;;;;;;;;4825294;29;20046;-80
2022/01/31 10:17:59;;;;;;;2.13;1.92;;;;;;;;;;4846704;29;20542;-86
2022/01/31 10:20:34;;;;;;;2.83;2.13;;;;;;;;;;4859107;29;20060;-83
2022/01/31 10:23:09;;;;;;;5.28;4.07;;;;;;;;;;4858591;29;20060;-84
2022/01/31 10:25:39;;;;;;;3.67;2.22;;;;;;;;;;4797965;29;20062;-85
2022/01/31 10:28:18;;;;;;;4.15;3.40;;;;;;;;;;4801443;29;20061;-84
2022/01/31 10:30:50;;;;;;;2.55;2.22;;;;;;;;;;4769728;30;20055;-84
2022/01/31 10:33:21;;;;;;;3.75;3.45;;;;;;;;;;4783251;29;20055;-85
2022/01/31 10:35:49;;;;;;;4.57;2.72;;;;;;;;;;4768660;30;20051;-83
2022/01/31 10:38:30;;;;;;;3.90;3.53;;;;;;;;;;4784917;29;20078;-85
2022/01/31 10:52:25;;;;;;;2.88;2.67;;;;;;;;;;4825635;29;20653;-81
2022/01/31 10:54:55;;;;;;;2.22;2.13;;;;;;;;;;4793031;29;20058;-83
2022/01/31 10:57:26;;;;;;;2.72;2.08;;;;;;;;;;4817838;29;20057;-85
2022/01/31 11:00:00;;;;;;;3.45;3.10;;;;;;;;;;4811798;29;20045;-89
2022/01/31 11:02:35;;;;;;;2.38;2.10;;;;;;;;;;4859748;29;20064;-88
2022/01/31 11:05:04;;;;;;;2.53;2.33;;;;;;;;;;4848005;29;20512;-90
2022/01/31 11:07:32;;;;;;;5.15;1.92;;;;;;;;;;4823163;29;20050;-83
2022/01/31 11:13:52;;;;;;;3.25;1.92;;;;;;;;;;4817203;29;20392;-81
2022/01/31 11:16:36;;;;;;;2.33;2.22;;;;;;;;;;4823545;29;20381;-89
2022/01/31 11:19:08;;;;;;;2.17;2.05;;;;;;;;;;4822757;29;20074;-82
2022/01/31 11:21:40;;;;;;;1.90;1.80;;;;;;;;;;4821800;29;20051;-86
2022/01/31 11:24:20;;;;;;;5.80;2.53;;;;;;;;;;4822885;29;20057;-85
2022/01/31 11:26:51;;;;;;;2.03;1.63;;;;;;;;;;4847318;29;20053;-86
2022/01/31 11:29:35;;;;;;;2.20;2.00;;;;;;;;;;4827583;29;20050;-87
2022/01/31 11:32:07;;;;;;;1.52;1.42;;;;;;;;;;4842325;29;20058;-86
2022/01/31 11:34:39;;;;;;;1.90;1.80;;;;;;;;;;4833032;29;20048;-84
2022/01/31 11:37:09;;;;;;;1.80;1.77;;;;;;;;;;4813398;29;20416;-84
2022/01/31 11:39:41;;;;;;;2.20;2.10;;;;;;;;;;4824702;29;20058;-89
2022/01/31 11:42:20;;;;;;;;;;;;;;;;;;;;;
2022/01/31 11:44:57;;;;;;;1.13;1.13;;;;;;;;;;4805739;29;20587;-88
2022/01/31 11:47:38;;;;;;;1.30;1.20;;;;;;;;;;4840251;29;20053;-88
2022/01/31 11:51:03;;;;;;;1.77;1.60;;;;;;;;;;4812465;29;20046;-86
2022/01/31 11:53:40;;;;;;;1.30;1.30;;;;;;;;;;4793861;29;20058;-82
2022/01/31 11:56:15;;;;;;;2.20;2.00;;;;;;;;;;4830214;29;20056;-84
2022/01/31 11:58:46;;;;;;;2.50;1.88;;;;;;;;;;4857706;29;20105;-86
2022/01/31 12:01:15;;;;;;;2.08;1.70;;;;;;;;;;4819837;29;20088;-87
2022/01/31 12:04:13;;;;;;;5.97;2.05;;;;;;;;;;4839064;29;20042;-85
2022/01/31 12:06:41;;;;;;;2.92;1.40;;;;;;;;;;4839478;29;20084;-84
2022/01/31 12:09:16;;;;;;;4.30;2.17;;;;;;;;;;4838774;29;20508;-87
2022/01/31 12:12:02;;;;;;;2.67;1.85;;;;;;;;;;4839196;29;20424;-85
2022/01/31 12:14:52;;;;;;;2.38;1.67;;;;;;;;;;4812086;29;20046;-85
2022/01/31 12:18:02;;;;;;;1.70;1.60;;;;;;;;;;4835266;29;20054;-84
2022/01/31 12:23:47;;;;;;;1.10;1.10;;;;;;;;;;4842720;29;20440;-81
2022/01/31 12:26:28;;;;;;;2.13;2.03;;;;;;;;;;4837787;29;20401;-86
2022/01/31 12:28:57;;;;;;;1.65;1.55;;;;;;;;;;4844815;29;20049;-84
2022/01/31 12:31:37;;;;;;;1.30;1.30;;;;;;;;;;4845415;29;20053;-84
2022/01/31 12:34:11;;;;;;;3.92;1.75;;;;;;;;;;4852227;29;20061;-84
2022/01/31 12:36:43;;;;;;;2.03;1.60;;;;;;;;;;4842806;29;20041;-87
2022/01/31 12:39:36;;;;;;;2.03;1.92;;;;;;;;;;4845273;29;20423;-83
2022/01/31 12:45:25;;;;;;;1.10;1.10;;;;;;;;;;4825546;29;20053;-84
2022/01/31 12:48:16;;;;;;;2.00;1.90;;;;;;;;;;4818081;29;20498;-85
2022/01/31 12:50:44;;;;;;;1.53;1.47;;;;;;;;;;4836927;29;20061;-80
2022/01/31 12:53:38;;;;;;;1.65;1.58;;;;;;;;;;4842731;29;20507;-80
2022/01/31 12:56:12;;;;;;;1.40;1.30;;;;;;;;;;4837403;29;20056;-83
2022/01/31 12:58:43;;;;;;;1.33;1.23;;;;;;;;;;4842023;29;20061;-84
2022/01/31 13:01:16;;;;;;;1.20;1.10;;;;;;;;;;4825520;29;20121;-85
2022/01/31 13:03:46;;;;;;;1.92;1.50;;;;;;;;;;4842001;29;20069;-84
2022/01/31 13:06:28;;;;;;;1.38;1.38;;;;;;;;;;4847312;29;20511;-85
2022/01/31 13:08:58;;;;;;;1.40;1.30;;;;;;;;;;4831312;29;20043;-85
2022/01/31 13:11:31;;;;;;;1.17;1.17;;;;;;;;;;4819059;29;20050;-82
2022/01/31 13:14:08;;;;;;;1.55;1.50;;;;;;;;;;4837546;29;20066;-83
2022/01/31 13:17:04;;;;;;;1.40;1.30;;;;;;;;;;4836850;29;20053;-82
2022/01/31 13:19:34;;;;;;;3.60;1.95;;;;;;;;;;4845204;29;20518;-88
2022/01/31 13:22:06;;;;;;;2.25;1.98;;;;;;;;;;4813290;29;20058;-89
2022/01/31 13:24:37;;;;;;;1.35;1.30;;;;;;;;;;4822010;29;20057;-82
2022/01/31 13:27:07;;;;;;;2.08;1.98;;;;;;;;;;4826737;29;20487;-83
2022/01/31 13:29:58;;;;;;;2.47;1.63;;;;;;;;;;4826179;29;20054;-83
2022/01/31 13:32:31;;;;;;;2.13;2.03;;;;;;;;;;4841646;29;20038;-84
2022/01/31 13:35:13;;;;;;;1.20;1.10;;;;;;;;;;4810639;29;20077;-86
2022/01/31 13:37:53;;;;;;;1.48;1.38;;;;;;;;;;4841173;29;20045;-85
2022/01/31 13:40:24;;;;;;;1.48;1.45;;;;;;;;;;4841447;29;20062;-83
2022/01/31 13:43:17;;;;;;;1.88;1.55;;;;;;;;;;4812899;29;20054;-82
2022/01/31 13:46:00;;;;;;;2.42;2.17;;;;;;;;;;4808595;29;20053;-85
2022/01/31 13:49:10;;;;;;;4.28;1.65;;;;;;;;;;4853707;29;20064;-82
2022/01/31 13:51:34;;;;;;;3.17;1.67;;;;;;;;;;4859591;29;20045;-85
2022/01/31 13:54:08;;;;;;;3.95;1.50;;;;;;;;;;4828074;29;20144;-83
2022/01/31 13:56:37;;;;;;;1.50;1.40;;;;;;;;;;4859246;29;20420;-84
2022/01/31 13:59:06;;;;;;;1.80;1.70;;;;;;;;;;4842923;29;20066;-84
2022/01/31 14:01:34;;;;;;;2.05;1.58;;;;;;;;;;4842844;29;20045;-83
2022/01/31 14:04:03;;;;;;;1.63;1.23;;;;;;;;;;4859052;29;20046;-83
2022/01/31 14:06:32;;;;;;;1.25;1.25;;;;;;;;;;4859954;29;20382;-83
2022/01/31 14:09:04;;;;;;;2.13;2.03;;;;;;;;;;4841689;29;20050;-84
2022/01/31 14:11:39;;;;;;;1.95;1.73;;;;;;;;;;4834471;29;20042;-80
2022/01/31 14:14:10;;;;;;;1.90;1.77;;;;;;;;;;4811338;29;20057;-80
2022/01/31 14:16:43;;;;;;;1.30;1.30;;;;;;;;;;4843527;29;20493;-81
2022/01/31 14:19:12;;;;;;;5.07;1.80;;;;;;;;;;4842351;29;20061;-80
2022/01/31 14:21:42;;;;;;;1.48;1.38;;;;;;;;;;4823881;29;20066;-81
2022/01/31 14:24:11;;;;;;;2.55;1.90;;;;;;;;;;4844496;29;20053;-82
2022/01/31 14:27:02;;;;;;;2.15;2.05;;;;;;;;;;4844876;29;20052;-80
2022/01/31 14:29:38;;;;;;;2.65;2.00;;;;;;;;;;4826070;29;20049;-81
2022/01/31 14:32:07;;;;;;;2.33;1.40;;;;;;;;;;4823641;29;20050;-80
2022/01/31 14:34:39;;;;;;;4.18;2.47;;;;;;;;;;4810105;29;20787;-82
2022/01/31 14:37:09;;;;;;;1.55;1.45;;;;;;;;;;4840479;29;20046;-79
2022/01/31 14:40:38;;;;;;;3.33;1.73;;;;;;;;;;4823217;29;20068;-80
2022/01/31 14:42:45;;;;;;;1.48;1.42;;;;;;;;;;4841756;29;20065;-80
2022/01/31 14:48:06;;;;;;;5.72;1.88;;;;;;;;;;4823628;29;20060;-81
2022/01/31 14:50:36;;;;;;;1.40;1.30;;;;;;;;;;4834168;29;20068;-80
2022/01/31 14:53:14;;;;;;;4.43;1.70;;;;;;;;;;4828716;29;20492;-82
2022/01/31 14:55:44;;;;;;;1.92;1.83;;;;;;;;;;4825866;29;20054;-80
2022/01/31 14:58:12;;;;;;;3.78;1.80;;;;;;;;;;4865392;29;20057;-79
2022/01/31 15:00:41;;;;;;;1.85;1.75;;;;;;;;;;4841560;29;20050;-83
2022/01/31 15:03:12;;;;;;;1.38;1.27;;;;;;;;;;4858612;29;20054;-80
2022/01/31 15:05:41;;;;;;;2.42;2.28;;;;;;;;;;4862850;29;20052;-82
2022/01/31 15:08:09;;;;;;;2.75;2.08;;;;;;;;;;4845358;29;20041;-79
2022/01/31 15:10:38;;;;;;;1.90;1.33;;;;;;;;;;4837776;29;20066;-78
2022/01/31 15:13:07;;;;;;;1.33;1.33;;;;;;;;;;4852076;29;20054;-78
2022/01/31 15:15:39;;;;;;;1.35;1.33;;;;;;;;;;4839464;29;20050;-79
2022/01/31 15:18:08;;;;;;;1.23;1.23;;;;;;;;;;4830209;29;20403;-79
2022/01/31 15:20:36;;;;;;;2.97;1.60;;;;;;;;;;4823946;29;20064;-78
2022/01/31 15:23:05;;;;;;;1.42;1.30;;;;;;;;;;4838752;29;20042;-79
2022/01/31 15:25:35;;;;;;;1.38;1.35;;;;;;;;;;4833805;29;20523;-77
2022/01/31 15:28:03;;;;;;;1.58;1.48;;;;;;;;;;4838489;29;20050;-78
2022/01/31 15:30:31;;;;;;;4.13;1.63;;;;;;;;;;4820014;29;20073;-79
2022/01/31 15:32:59;;;;;;;2.13;1.98;;;;;;;;;;4838611;29;20050;-79
2022/01/31 15:35:27;;;;;;;6.07;1.83;;;;;;;;;;4839083;29;20054;-78
2022/01/31 15:37:55;;;;;;;3.50;2.92;;;;;;;;;;4839355;29;20499;-79
2022/01/31 15:40:24;;;;;;;1.90;1.80;;;;;;;;;;4822917;29;20046;-79
2022/01/31 15:42:54;;;;;;;2.60;1.75;;;;;;;;;;4823017;29;20058;-81
2022/01/31 15:45:22;;;;;;;2.80;1.98;;;;;;;;;;4820679;29;20065;-81
2022/01/31 15:47:50;;;;;;;2.35;2.25;;;;;;;;;;4820352;29;20046;-80
2022/01/31 15:50:18;;;;;;;2.25;2.03;;;;;;;;;;4820457;29;20057;-80
2022/01/31 15:52:46;;;;;;;1.95;1.60;;;;;;;;;;4803997;29;20062;-79
2022/01/31 15:55:14;;;;;;;1.58;1.48;;;;;;;;;;4820617;29;20054;-79
2022/01/31 15:57:42;;;;;;;1.10;1.10;;;;;;;;;;4813901;29;20057;-79
2022/01/31 16:00:12;;;;;;;5.38;2.08;;;;;;;;;;4833333;29;20061;-83
2022/01/31 16:02:42;;;;;;;1.52;1.40;;;;;;;;;;4830605;29;20061;-82
2022/01/31 16:05:12;;;;;;;1.50;1.40;;;;;;;;;;4813969;29;20054;-80